createdAt,value
2023-09-02T00:00:52.520Z,940.26
2023-09-02T00:01:53.628Z,940.26
2023-09-02T00:02:53.849Z,940.25
2023-09-02T00:03:54.108Z,940.24
2023-09-02T00:04:54.891Z,940.26
2023-09-02T00:05:55.884Z,940.26
2023-09-02T00:06:56.400Z,940.26
2023-09-02T00:07:56.947Z,940.24
2023-09-02T00:08:57.888Z,940.24
2023-09-02T00:09:58.545Z,940.25
2023-09-02T00:10:59.379Z,940.26
2023-09-02T00:11:59.882Z,940.27
2023-09-02T00:13:00.579Z,940.3
2023-09-02T00:14:01.194Z,940.3
2023-09-02T00:15:01.899Z,940.28
2023-09-02T00:16:02.685Z,940.31
2023-09-02T00:17:03.378Z,940.31
2023-09-02T00:18:04.367Z,940.3
2023-09-02T00:19:04.944Z,940.3
2023-09-02T00:20:05.760Z,940.3
2023-09-02T00:21:06.466Z,940.3
2023-09-02T00:22:07.409Z,940.35
2023-09-02T00:23:07.520Z,940.33
2023-09-02T00:24:08.357Z,940.34
2023-09-02T00:25:09.100Z,940.34
2023-09-02T00:26:09.609Z,940.31
2023-09-02T00:27:10.347Z,940.29
2023-09-02T00:28:11.295Z,940.3
2023-09-02T00:29:11.605Z,940.34
2023-09-02T00:30:12.021Z,940.33
2023-09-02T00:31:12.794Z,940.32
2023-09-02T00:32:13.033Z,940.3
2023-09-02T00:33:13.492Z,940.29
2023-09-02T00:34:14.022Z,940.32
2023-09-02T00:35:14.742Z,940.32
2023-09-02T00:36:15.266Z,940.32
2023-09-02T00:37:15.827Z,940.3
2023-09-02T00:38:16.354Z,940.31
2023-09-02T00:39:17.056Z,940.3
2023-09-02T00:40:17.304Z,940.34
2023-09-02T00:41:17.808Z,940.3
2023-09-02T00:42:18.550Z,940.32
2023-09-02T00:43:18.931Z,940.3
2023-09-02T00:44:19.756Z,940.31
2023-09-02T00:45:20.254Z,940.31
2023-09-02T00:46:20.559Z,940.33
2023-09-02T00:47:21.223Z,940.34
2023-09-02T00:48:21.456Z,940.33
2023-09-02T00:49:22.161Z,940.38
2023-09-02T00:50:23.179Z,940.37
2023-09-02T00:51:23.312Z,940.4
2023-09-02T00:52:24.014Z,940.37
2023-09-02T00:53:24.519Z,940.39
2023-09-02T00:54:25.462Z,940.39
2023-09-02T00:55:26.164Z,940.39
2023-09-02T00:56:26.886Z,940.4
2023-09-02T00:57:27.614Z,940.4
2023-09-02T00:58:28.312Z,940.39
2023-09-02T00:59:28.846Z,940.41
2023-09-02T01:00:29.610Z,940.4
2023-09-02T01:01:30.483Z,940.39
2023-09-02T01:02:30.680Z,940.37
2023-09-02T01:03:31.712Z,940.37
2023-09-02T01:04:31.996Z,940.4
2023-09-02T01:05:32.478Z,940.36
2023-09-02T01:06:33.560Z,940.35
2023-09-02T01:07:34.495Z,940.35
2023-09-02T01:08:35.442Z,940.39
2023-09-02T01:09:35.553Z,940.38
2023-09-02T01:10:36.205Z,940.37
2023-09-02T01:11:36.908Z,940.39
2023-09-02T01:12:37.414Z,940.35
2023-09-02T01:13:38.159Z,940.32
2023-09-02T01:14:38.969Z,940.36
2023-09-02T01:15:39.931Z,940.34
2023-09-02T01:16:40.874Z,940.32
2023-09-02T01:17:41.057Z,940.34
2023-09-02T01:18:41.204Z,940.35
2023-09-02T01:19:42.133Z,940.37
2023-09-02T01:20:42.619Z,940.34
2023-09-02T01:21:43.324Z,940.35
2023-09-02T01:22:44.299Z,940.34
2023-09-02T01:23:44.988Z,940.37
2023-09-02T01:24:45.309Z,940.35
2023-09-02T01:25:45.949Z,940.34
2023-09-02T01:26:46.252Z,940.33
2023-09-02T01:27:46.751Z,940.35
2023-09-02T01:28:47.482Z,940.36
2023-09-02T01:29:48.420Z,940.35
2023-09-02T01:30:48.855Z,940.34
2023-09-02T01:31:48.986Z,940.36
2023-09-02T01:32:50.035Z,940.37
2023-09-02T01:33:50.316Z,940.38
2023-09-02T01:34:51.309Z,940.37
2023-09-02T01:35:51.824Z,940.37
2023-09-02T01:36:52.587Z,940.36
2023-09-02T01:37:53.100Z,940.38
2023-09-02T01:38:53.656Z,940.36
2023-09-02T01:39:54.365Z,940.33
2023-09-02T01:40:54.785Z,940.37
2023-09-02T01:41:55.521Z,940.32
2023-09-02T01:42:56.260Z,940.33
2023-09-02T01:43:56.751Z,940.29
2023-09-02T01:44:57.456Z,940.33
2023-09-02T01:45:57.998Z,940.35
2023-09-02T01:46:58.112Z,940.29
2023-09-02T01:47:58.683Z,940.29
2023-09-02T01:48:59.220Z,940.28
2023-09-02T01:50:00.266Z,940.29
2023-09-02T01:51:00.956Z,940.32
2023-09-02T01:52:01.891Z,940.29
2023-09-02T01:53:02.604Z,940.26
2023-09-02T01:54:02.751Z,940.31
2023-09-02T01:55:04.013Z,940.28
2023-09-02T01:56:03.784Z,940.3
2023-09-02T01:57:04.728Z,940.32
2023-09-02T01:58:05.279Z,940.32
2023-09-02T01:59:05.801Z,940.32
2023-09-02T02:00:05.971Z,940.29
2023-09-02T02:01:06.961Z,940.3
2023-09-02T02:02:07.791Z,940.32
2023-09-02T02:03:08.754Z,940.26
2023-09-02T02:04:08.963Z,940.27
2023-09-02T02:05:09.524Z,940.24
2023-09-02T02:06:10.290Z,940.21
2023-09-02T02:07:10.826Z,940.25
2023-09-02T02:08:10.991Z,940.22
2023-09-02T02:09:11.876Z,940.25
2023-09-02T02:10:12.384Z,940.21
2023-09-02T02:11:13.437Z,940.25
2023-09-02T02:12:13.938Z,940.22
2023-09-02T02:13:14.880Z,940.22
2023-09-02T02:14:15.069Z,940.2
2023-09-02T02:15:15.988Z,940.2
2023-09-02T02:16:16.976Z,940.22
2023-09-02T02:17:17.868Z,940.23
2023-09-02T02:18:18.291Z,940.22
2023-09-02T02:19:18.658Z,940.2
2023-09-02T02:20:19.395Z,940.24
2023-09-02T02:21:20.020Z,940.25
2023-09-02T02:22:20.937Z,940.26
2023-09-02T02:25:22.404Z,940.23
2023-09-02T02:26:23.349Z,940.25
2023-09-02T02:27:23.649Z,940.26
2023-09-02T02:28:23.792Z,940.25
2023-09-02T02:29:23.970Z,940.26
2023-09-02T02:30:24.675Z,940.27
2023-09-02T02:31:25.002Z,940.27
2023-09-02T02:32:25.854Z,940.25
2023-09-02T02:33:26.043Z,940.28
2023-09-02T02:34:26.244Z,940.28
2023-09-02T02:35:27.172Z,940.3
2023-09-02T02:36:27.731Z,940.31
2023-09-02T02:37:28.643Z,940.3
2023-09-02T02:38:29.113Z,940.36
2023-09-02T02:39:29.653Z,940.32
2023-09-02T02:40:30.342Z,940.32
2023-09-02T02:41:30.552Z,940.32
2023-09-02T02:42:30.837Z,940.35
2023-09-02T02:43:31.541Z,940.4
2023-09-02T02:44:32.080Z,940.41
2023-09-02T02:45:32.864Z,940.44
2023-09-02T02:46:33.896Z,940.43
2023-09-02T02:47:34.427Z,940.43
2023-09-02T02:48:34.546Z,940.44
2023-09-02T02:49:35.530Z,940.44
2023-09-02T02:50:36.112Z,940.41
2023-09-02T02:51:36.990Z,940.41
2023-09-02T02:52:37.910Z,940.46
2023-09-02T02:53:38.048Z,940.43
2023-09-02T02:54:38.930Z,940.45
2023-09-02T02:55:39.717Z,940.45
2023-09-02T02:56:40.312Z,940.46
2023-09-02T02:57:40.454Z,940.42
2023-09-02T02:58:41.182Z,940.41
2023-09-02T02:59:41.313Z,940.41
2023-09-02T03:00:42.258Z,940.45
2023-09-02T03:01:42.540Z,940.45
2023-09-02T03:02:43.093Z,940.42
2023-09-02T03:03:43.239Z,940.41
2023-09-02T03:04:43.440Z,940.41
2023-09-02T03:05:44.450Z,940.37
2023-09-02T03:06:45.369Z,940.38
2023-09-02T03:07:45.670Z,940.39
2023-09-02T03:08:46.371Z,940.38
2023-09-02T03:09:47.068Z,940.38
2023-09-02T03:10:47.575Z,940.39
2023-09-02T03:11:48.002Z,940.41
2023-09-02T03:12:48.911Z,940.42
2023-09-02T03:13:49.613Z,940.38
2023-09-02T03:14:49.802Z,940.41
2023-09-02T03:15:50.723Z,940.44
2023-09-02T03:16:51.018Z,940.43
2023-09-02T03:17:51.618Z,940.44
2023-09-02T03:18:51.842Z,940.45
2023-09-02T04:02:18.750Z,940.39
2023-09-02T04:03:19.116Z,940.43
2023-09-02T04:04:19.634Z,940.43
2023-09-02T04:05:20.577Z,940.42
2023-09-02T04:06:21.094Z,940.46
2023-09-02T04:07:21.987Z,940.43
2023-09-02T04:08:22.952Z,940.41
2023-09-02T04:09:23.454Z,940.48
2023-09-02T04:10:24.278Z,940.42
2023-09-02T04:11:24.811Z,940.43
2023-09-02T04:12:25.348Z,940.41
2023-09-02T04:13:25.538Z,940.43
2023-09-02T04:14:26.526Z,940.42
2023-09-02T04:15:27.104Z,940.41
2023-09-02T04:16:27.821Z,940.44
2023-09-02T04:17:29.441Z,940.48
2023-09-02T04:18:29.661Z,940.5
2023-09-02T04:19:29.758Z,940.46
2023-09-02T04:20:30.689Z,940.49
2023-09-02T04:21:31.168Z,940.5
2023-09-02T04:22:31.759Z,940.49
2023-09-02T04:23:32.636Z,940.49
2023-09-02T04:24:33.332Z,940.48
2023-09-02T04:25:34.017Z,940.48
2023-09-02T04:26:34.718Z,940.5
2023-09-02T04:27:35.218Z,940.5
2023-09-02T04:28:35.934Z,940.48
2023-09-02T04:29:36.452Z,940.48
2023-09-02T04:30:37.370Z,940.48
2023-09-02T04:31:37.489Z,940.52
2023-09-02T04:32:38.176Z,940.54
2023-09-02T04:33:38.378Z,940.55
2023-09-02T04:34:38.954Z,940.56
2023-09-02T04:35:39.245Z,940.56
2023-09-02T04:36:39.756Z,940.57
2023-09-02T04:37:40.729Z,940.62
2023-09-02T04:38:41.095Z,940.64
2023-09-02T04:39:41.775Z,940.63
2023-09-02T04:40:42.452Z,940.64
2023-09-02T04:41:43.354Z,940.65
2023-09-02T04:42:43.948Z,940.64
2023-09-02T04:43:44.860Z,940.62
2023-09-02T04:44:45.664Z,940.62
2023-09-02T04:45:46.408Z,940.62
2023-09-02T04:46:47.139Z,940.66
2023-09-02T04:47:47.961Z,940.62
2023-09-02T04:48:48.226Z,940.63
2023-09-02T04:49:48.378Z,940.63
2023-09-02T04:50:49.340Z,940.67
2023-09-02T04:51:49.892Z,940.66
2023-09-02T04:52:50.241Z,940.68
2023-09-02T04:53:50.931Z,940.71
2023-09-02T04:54:51.693Z,940.73
2023-09-02T04:55:52.169Z,940.73
2023-09-02T04:56:52.708Z,940.77
2023-09-02T04:57:53.459Z,940.78
2023-09-02T04:58:54.258Z,940.77
2023-09-02T04:59:54.757Z,940.78
2023-09-02T05:00:55.267Z,940.79
2023-09-02T05:01:55.442Z,940.78
2023-09-02T05:02:55.794Z,940.8
2023-09-02T05:03:56.038Z,940.79
2023-09-02T05:04:56.594Z,940.82
2023-09-02T05:05:57.140Z,940.84
2023-09-02T05:06:57.418Z,940.85
2023-09-02T05:07:58.109Z,940.87
2023-09-02T05:08:58.285Z,940.89
2023-09-02T05:09:58.401Z,940.87
2023-09-02T05:10:58.522Z,940.88
2023-09-02T05:11:59.063Z,940.87
2023-09-02T05:12:59.519Z,940.93
2023-09-02T05:14:00.551Z,940.93
2023-09-02T05:15:01.062Z,940.93
2023-09-02T05:16:01.268Z,940.94
2023-09-02T05:17:01.401Z,940.95
2023-09-02T05:18:02.266Z,940.96
2023-09-02T05:19:02.409Z,940.97
2023-09-02T05:20:03.282Z,941.03
2023-09-02T05:21:04.178Z,940.99
2023-09-02T05:22:04.502Z,941.01
2023-09-02T05:23:05.126Z,941.03
2023-09-02T05:24:05.261Z,941.06
2023-09-02T05:25:05.969Z,941.08
2023-09-02T05:26:06.656Z,941.01
2023-09-02T05:27:07.192Z,941.06
2023-09-02T05:28:08.138Z,941.03
2023-09-02T05:29:08.883Z,940.99
2023-09-02T05:30:09.423Z,941.04
2023-09-02T05:31:10.387Z,941.01
2023-09-02T05:32:10.497Z,941.02
2023-09-02T05:33:11.465Z,941.06
2023-09-02T05:34:12.384Z,941.06
2023-09-02T05:35:12.516Z,941.03
2023-09-02T05:36:12.685Z,941.03
2023-09-02T05:37:13.607Z,941.06
2023-09-02T05:38:14.121Z,941.09
2023-09-02T05:39:15.033Z,941.12
2023-09-02T05:40:16.017Z,941.1
2023-09-02T05:41:16.070Z,941.15
2023-09-02T05:42:16.591Z,941.18
2023-09-02T05:43:16.859Z,941.18
2023-09-02T05:44:17.156Z,941.14
2023-09-02T05:45:17.447Z,941.15
2023-09-02T05:46:18.452Z,941.18
2023-09-02T05:47:19.506Z,941.14
2023-09-02T05:48:19.789Z,941.13
2023-09-02T05:49:19.952Z,941.11
2023-09-02T05:50:20.441Z,941.1
2023-09-02T05:51:21.219Z,941.11
2023-09-02T05:52:21.872Z,941.09
2023-09-02T05:53:22.316Z,941.12
2023-09-02T05:54:22.386Z,941.1
2023-09-02T05:55:23.119Z,941.09
2023-09-02T05:56:24.069Z,941.11
2023-09-02T05:57:24.783Z,941.13
2023-09-02T05:58:25.104Z,941.13
2023-09-02T05:59:25.444Z,941.13
2023-09-02T06:00:26.430Z,941.14
2023-09-02T06:01:26.799Z,941.14
2023-09-02T06:02:27.470Z,941.12
2023-09-02T06:03:28.129Z,941.12
2023-09-02T06:04:28.415Z,941.14
2023-09-02T06:05:29.158Z,941.13
2023-09-02T06:06:31.291Z,941.17
2023-09-02T06:07:30.964Z,941.16
2023-09-02T06:08:31.630Z,941.2
2023-09-02T06:09:32.548Z,941.17
2023-09-02T06:10:33.024Z,941.21
2023-09-02T06:11:33.970Z,941.19
2023-09-02T06:12:34.870Z,941.2
2023-09-02T06:13:35.640Z,941.19
2023-09-02T06:14:36.328Z,941.17
2023-09-02T06:15:36.749Z,941.19
2023-09-02T06:16:36.969Z,941.19
2023-09-02T06:17:37.414Z,941.19
2023-09-02T06:18:37.679Z,941.22
2023-09-02T06:19:38.672Z,941.21
2023-09-02T06:20:39.357Z,941.23
2023-09-02T06:21:39.892Z,941.24
2023-09-02T06:22:40.610Z,941.27
2023-09-02T06:23:41.015Z,941.29
2023-09-02T06:24:41.981Z,941.27
2023-09-02T06:25:42.691Z,941.28
2023-09-02T06:26:42.974Z,941.3
2023-09-02T06:27:43.870Z,941.36
2023-09-02T06:28:44.618Z,941.38
2023-09-02T06:29:45.587Z,941.45
2023-09-02T06:30:46.582Z,941.42
2023-09-02T06:31:47.245Z,941.39
2023-09-02T06:32:48.239Z,941.42
2023-09-02T06:33:48.638Z,941.39
2023-09-02T06:34:49.449Z,941.4
2023-09-02T06:35:50.234Z,941.39
2023-09-02T06:36:50.943Z,941.42
2023-09-02T06:37:51.653Z,941.41
2023-09-02T06:38:52.419Z,941.45
2023-09-02T06:39:53.341Z,941.43
2023-09-02T06:40:54.081Z,941.39
2023-09-02T06:41:55.063Z,941.45
2023-09-02T06:42:55.569Z,941.42
2023-09-02T06:43:56.429Z,941.41
2023-09-02T06:44:57.200Z,941.43
2023-09-02T06:45:57.897Z,941.42
2023-09-02T06:46:58.763Z,941.43
2023-09-02T06:47:59.879Z,941.43
2023-09-02T06:49:00.772Z,941.43
2023-09-02T06:50:01.067Z,941.45
2023-09-02T06:51:01.824Z,941.46
2023-09-02T06:52:02.776Z,941.43
2023-09-02T06:53:03.308Z,941.43
2023-09-02T06:54:04.052Z,941.46
2023-09-02T06:55:04.625Z,941.45
2023-09-02T06:56:05.523Z,941.47
2023-09-02T06:57:05.889Z,941.56
2023-09-02T06:58:06.446Z,941.51
2023-09-02T06:59:07.552Z,941.47
2023-09-02T07:00:08.101Z,941.53
2023-09-02T07:01:08.848Z,941.6
2023-09-02T07:02:09.006Z,941.55
2023-09-02T07:03:09.941Z,941.57
2023-09-02T07:04:10.916Z,941.56
2023-09-02T07:05:11.270Z,941.56
2023-09-02T07:06:12.190Z,941.58
2023-09-02T07:07:12.926Z,941.6
2023-09-02T07:08:13.665Z,941.59
2023-09-02T07:09:14.051Z,941.6
2023-09-02T07:10:14.861Z,941.6
2023-09-02T07:11:15.601Z,941.58
2023-09-02T07:12:15.747Z,941.59
2023-09-02T07:13:16.780Z,941.59
2023-09-02T07:14:17.545Z,941.62
2023-09-02T07:15:17.656Z,941.59
2023-09-02T07:16:18.228Z,941.57
2023-09-02T07:17:19.177Z,941.56
2023-09-02T07:18:20.044Z,941.61
2023-09-02T07:19:20.834Z,941.58
2023-09-02T07:20:20.995Z,941.59
2023-09-02T07:21:21.745Z,941.59
2023-09-02T07:22:22.718Z,941.6
2023-09-02T07:23:23.036Z,941.61
2023-09-02T07:24:24.009Z,941.62
2023-09-02T07:25:24.310Z,941.63
2023-09-02T07:26:25.041Z,941.63
2023-09-02T07:27:25.626Z,941.6
2023-09-02T07:28:26.550Z,941.66
2023-09-02T07:29:27.126Z,941.7
2023-09-02T07:30:28.050Z,941.69
2023-09-02T07:31:29.057Z,941.64
2023-09-02T07:32:29.962Z,941.66
2023-09-02T07:33:30.396Z,941.67
2023-09-02T07:34:30.785Z,941.64
2023-09-02T07:35:30.967Z,941.67
2023-09-02T07:36:31.885Z,941.64
2023-09-02T07:37:32.617Z,941.63
2023-09-02T07:38:33.397Z,941.67
2023-09-02T07:39:33.594Z,941.69
2023-09-02T07:40:34.512Z,941.66
2023-09-02T07:41:35.227Z,941.69
2023-09-02T07:42:35.560Z,941.65
2023-09-02T07:43:35.703Z,941.66
2023-09-02T07:44:36.611Z,941.71
2023-09-02T07:45:37.333Z,941.72
2023-09-02T07:46:38.381Z,941.72
2023-09-02T07:47:39.156Z,941.74
2023-09-02T07:48:39.884Z,941.73
2023-09-02T07:49:40.861Z,941.73
2023-09-02T07:50:41.798Z,941.75
2023-09-02T07:51:42.103Z,941.75
2023-09-02T07:52:43.201Z,941.78
2023-09-02T07:53:43.927Z,941.8
2023-09-02T07:54:44.505Z,941.81
2023-09-02T07:55:45.430Z,941.8
2023-09-02T07:56:46.490Z,941.77
2023-09-02T07:57:47.201Z,941.8
2023-09-02T07:58:47.738Z,941.84
2023-09-02T07:59:48.310Z,941.81
2023-09-02T08:00:48.796Z,941.83
2023-09-02T08:01:49.857Z,941.84
2023-09-02T08:02:50.307Z,941.84
2023-09-02T08:03:50.450Z,941.93
2023-09-02T08:04:50.908Z,941.9
2023-09-02T08:05:50.911Z,941.94
2023-09-02T08:06:51.656Z,941.92
2023-09-02T08:07:52.564Z,941.92
2023-09-02T08:08:53.115Z,941.91
2023-09-02T08:09:54.063Z,941.91
2023-09-02T08:10:54.432Z,941.94
2023-09-02T08:11:54.969Z,941.97
2023-09-02T08:12:55.715Z,941.96
2023-09-02T08:13:56.617Z,941.95
2023-09-02T08:14:57.440Z,941.93
2023-09-02T08:15:58.175Z,941.91
2023-09-02T08:16:58.666Z,941.92
2023-09-02T08:17:59.002Z,941.87
2023-09-02T08:18:59.249Z,941.9
2023-09-02T08:20:00.317Z,941.88
2023-09-02T08:21:01.361Z,941.91
2023-09-02T08:22:01.673Z,941.9
2023-09-02T08:23:02.399Z,941.9
2023-09-02T08:24:02.528Z,941.91
2023-09-02T08:25:02.804Z,941.91
2023-09-02T08:26:03.544Z,941.9
2023-09-02T08:27:04.573Z,941.9
2023-09-02T08:28:05.560Z,941.9
2023-09-02T08:29:06.488Z,941.89
2023-09-02T08:30:07.181Z,941.91
2023-09-02T08:31:07.965Z,941.92
2023-09-02T08:32:08.070Z,941.92
2023-09-02T08:33:09.017Z,941.94
2023-09-02T08:34:09.305Z,941.92
2023-09-02T08:35:10.026Z,941.93
2023-09-02T08:36:10.274Z,941.94
2023-09-02T08:37:11.119Z,941.95
2023-09-02T08:38:11.848Z,941.94
2023-09-02T08:39:12.574Z,941.95
2023-09-02T08:40:13.499Z,941.93
2023-09-02T08:41:14.018Z,941.96
2023-09-02T08:42:14.933Z,941.97
2023-09-02T08:43:15.660Z,941.96
2023-09-02T08:44:15.760Z,941.96
2023-09-02T08:45:16.589Z,941.96
2023-09-02T08:46:16.953Z,941.98
2023-09-02T08:47:17.128Z,941.96
2023-09-02T08:48:17.764Z,941.96
2023-09-02T08:49:18.238Z,941.97
2023-09-02T08:50:19.239Z,941.95
2023-09-02T08:51:20.204Z,941.99
2023-09-02T08:52:20.344Z,941.98
2023-09-02T08:53:20.768Z,941.99
2023-09-02T08:54:21.378Z,942
2023-09-02T08:55:22.291Z,942
2023-09-02T08:56:22.713Z,941.96
2023-09-02T08:57:22.915Z,941.98
2023-09-02T08:58:23.798Z,941.98
2023-09-02T08:59:24.381Z,942.01
2023-09-02T09:00:25.325Z,942.05
2023-09-02T09:01:25.473Z,942.05
2023-09-02T09:02:26.227Z,942.04
2023-09-02T09:03:27.234Z,942.06
2023-09-02T09:04:27.899Z,942.05
2023-09-02T09:05:28.767Z,942.05
2023-09-02T09:06:29.848Z,942.11
2023-09-02T09:07:29.920Z,942.16
2023-09-02T09:08:30.274Z,942.14
2023-09-02T09:09:31.013Z,942.16
2023-09-02T09:10:31.957Z,942.19
2023-09-02T09:11:32.654Z,942.2
2023-09-02T09:12:33.348Z,942.19
2023-09-02T09:13:34.136Z,942.25
2023-09-02T09:14:34.878Z,942.31
2023-09-02T09:15:35.473Z,942.3
2023-09-02T09:16:36.432Z,942.31
2023-09-02T09:17:37.245Z,942.32
2023-09-02T09:18:38.120Z,942.32
2023-09-02T09:19:38.843Z,942.33
2023-09-02T09:20:39.965Z,942.32
2023-09-02T09:21:40.760Z,942.34
2023-09-02T09:22:41.723Z,942.34
2023-09-02T09:23:41.892Z,942.3
2023-09-02T09:24:42.634Z,942.31
2023-09-02T09:25:43.062Z,942.31
2023-09-02T09:26:43.985Z,942.31
2023-09-02T09:27:44.881Z,942.31
2023-09-02T09:28:45.791Z,942.3
2023-09-02T09:29:46.528Z,942.31
2023-09-02T09:30:47.137Z,942.31
2023-09-02T09:31:48.010Z,942.35
2023-09-02T09:32:48.764Z,942.33
2023-09-02T09:33:49.723Z,942.35
2023-09-02T09:34:50.467Z,942.38
2023-09-02T09:35:51.372Z,942.33
2023-09-02T09:36:52.272Z,942.35
2023-09-02T09:37:52.997Z,942.36
2023-09-02T09:38:53.743Z,942.35
2023-09-02T09:39:54.477Z,942.3
2023-09-02T09:40:55.107Z,942.32
2023-09-02T09:41:55.933Z,942.31
2023-09-02T09:42:56.448Z,942.34
2023-09-02T09:43:56.870Z,942.34
2023-09-02T09:44:57.627Z,942.3
2023-09-02T09:45:58.723Z,942.33
2023-09-02T09:46:59.135Z,942.28
2023-09-02T09:47:59.278Z,942.31
2023-09-02T09:48:59.663Z,942.3
2023-09-02T09:50:00.326Z,942.3
2023-09-02T09:51:00.562Z,942.27
2023-09-02T09:52:01.533Z,942.28
2023-09-02T09:53:02.473Z,942.27
2023-09-02T09:54:02.688Z,942.27
2023-09-02T09:55:03.401Z,942.29
2023-09-02T09:56:03.878Z,942.3
2023-09-02T09:57:04.817Z,942.27
2023-09-02T09:58:04.969Z,942.27
2023-09-02T09:59:05.672Z,942.28
2023-09-02T10:00:06.632Z,942.26
2023-09-02T10:01:07.371Z,942.27
2023-09-02T10:02:07.605Z,942.28
2023-09-02T10:03:08.385Z,942.29
2023-09-02T10:04:08.991Z,942.33
2023-09-02T10:05:09.550Z,942.3
2023-09-02T10:06:09.766Z,942.28
2023-09-02T10:07:11.752Z,942.31
2023-09-02T10:08:11.346Z,942.28
2023-09-02T10:09:12.017Z,942.27
2023-09-02T10:10:12.776Z,942.25
2023-09-02T10:11:13.533Z,942.22
2023-09-02T10:12:14.148Z,942.27
2023-09-02T10:13:14.878Z,942.21
2023-09-02T10:14:15.934Z,942.26
2023-09-02T10:15:16.642Z,942.2
2023-09-02T10:16:17.537Z,942.19
2023-09-02T10:17:18.545Z,942.22
2023-09-02T10:18:19.287Z,942.26
2023-09-02T10:19:19.883Z,942.2
2023-09-02T10:20:20.638Z,942.26
2023-09-02T10:21:20.861Z,942.21
2023-09-02T10:22:21.867Z,942.23
2023-09-02T10:23:22.862Z,942.23
2023-09-02T10:24:23.632Z,942.22
2023-09-02T10:25:24.274Z,942.21
2023-09-02T10:26:24.912Z,942.19
2023-09-02T10:27:25.820Z,942.21
2023-09-02T10:28:26.781Z,942.21
2023-09-02T10:29:26.937Z,942.2
2023-09-02T10:30:27.754Z,942.24
2023-09-02T10:31:28.867Z,942.19
2023-09-02T10:32:29.906Z,942.18
2023-09-02T10:33:30.869Z,942.15
2023-09-02T10:34:31.598Z,942.22
2023-09-02T10:35:32.350Z,942.22
2023-09-02T10:36:33.066Z,942.18
2023-09-02T10:37:33.819Z,942.19
2023-09-02T10:38:34.178Z,942.22
2023-09-02T10:39:34.835Z,942.19
2023-09-02T10:40:35.833Z,942.23
2023-09-02T10:41:36.753Z,942.24
2023-09-02T10:42:37.774Z,942.23
2023-09-02T10:43:38.503Z,942.22
2023-09-02T10:44:39.060Z,942.21
2023-09-02T10:45:40.019Z,942.19
2023-09-02T10:46:41.020Z,942.19
2023-09-02T10:47:41.785Z,942.14
2023-09-02T10:48:42.822Z,942.14
2023-09-02T10:49:43.375Z,942.16
2023-09-02T10:50:44.084Z,942.15
2023-09-02T10:51:44.940Z,942.17
2023-09-02T10:52:49.806Z,942.15
2023-09-02T10:53:46.146Z,942.17
2023-09-02T10:54:47.035Z,942.16
2023-09-02T10:55:47.593Z,942.15
2023-09-02T10:56:47.932Z,942.15
2023-09-02T10:57:48.308Z,942.15
2023-09-02T10:58:48.769Z,942.16
2023-09-02T10:59:49.144Z,942.18
2023-09-02T11:00:49.689Z,942.17
2023-09-02T11:01:50.607Z,942.19
2023-09-02T11:02:50.766Z,942.21
2023-09-02T11:03:51.304Z,942.23
2023-09-02T11:04:52.056Z,942.25
2023-09-02T11:05:52.579Z,942.25
2023-09-02T11:06:53.776Z,942.26
2023-09-02T11:07:54.080Z,942.22
2023-09-02T11:08:54.407Z,942.2
2023-09-02T11:09:55.019Z,942.17
2023-09-02T11:10:55.726Z,942.17
2023-09-02T11:11:56.470Z,942.15
2023-09-02T11:12:57.042Z,942.13
2023-09-02T11:13:57.775Z,942.15
2023-09-02T11:14:58.147Z,942.16
2023-09-02T11:15:58.765Z,942.15
2023-09-02T11:16:59.474Z,942.12
2023-09-02T11:17:59.996Z,942.13
2023-09-02T11:19:00.380Z,942.17
2023-09-02T11:20:01.344Z,942.19
2023-09-02T11:21:01.907Z,942.16
2023-09-02T11:22:02.690Z,942.19
2023-09-02T11:23:03.663Z,942.21
2023-09-02T11:24:04.030Z,942.14
2023-09-02T11:25:04.892Z,942.17
2023-09-02T11:26:05.671Z,942.18
2023-09-02T11:27:05.831Z,942.19
2023-09-02T11:28:06.700Z,942.21
2023-09-02T11:29:07.230Z,942.19
2023-09-02T11:30:08.147Z,942.18
2023-09-02T11:31:09.112Z,942.24
2023-09-02T11:32:09.779Z,942.24
2023-09-02T11:33:10.418Z,942.23
2023-09-02T11:34:11.119Z,942.21
2023-09-02T11:35:12.098Z,942.25
2023-09-02T11:36:12.408Z,942.25
2023-09-02T11:37:13.163Z,942.24
2023-09-02T11:38:14.169Z,942.25
2023-09-02T11:39:14.952Z,942.24
2023-09-02T11:40:15.292Z,942.26
2023-09-02T11:41:16.267Z,942.25
2023-09-02T11:42:16.496Z,942.27
2023-09-02T11:43:17.469Z,942.29
2023-09-02T11:44:17.515Z,942.3
2023-09-02T11:45:18.425Z,942.29
2023-09-02T11:46:19.084Z,942.3
2023-09-02T11:47:20.116Z,942.3
2023-09-02T11:48:20.828Z,942.33
2023-09-02T11:49:21.581Z,942.33
2023-09-02T11:50:22.325Z,942.35
2023-09-02T11:51:23.117Z,942.33
2023-09-02T11:52:23.366Z,942.34
2023-09-02T11:53:24.166Z,942.35
2023-09-02T11:54:24.717Z,942.31
2023-09-02T11:55:25.705Z,942.32
2023-09-02T11:56:26.637Z,942.31
2023-09-02T11:57:27.511Z,942.29
2023-09-02T11:58:28.238Z,942.3
2023-09-02T11:59:30.161Z,942.28
2023-09-02T12:00:29.325Z,942.26
2023-09-02T12:01:30.292Z,942.23
2023-09-02T12:02:30.723Z,942.19
2023-09-02T12:03:31.491Z,942.18
2023-09-02T12:04:31.640Z,942.16
2023-09-02T12:05:32.588Z,942.16
2023-09-02T12:06:33.565Z,942.14
2023-09-02T12:07:34.594Z,942.11
2023-09-02T12:08:34.563Z,942.08
2023-09-02T12:09:35.327Z,942.07
2023-09-02T12:10:36.295Z,942.09
2023-09-02T12:11:36.453Z,942.08
2023-09-02T12:12:37.383Z,942.12
2023-09-02T12:13:37.549Z,942.12
2023-09-02T12:14:38.450Z,942.1
2023-09-02T12:15:39.201Z,942.1
2023-09-02T12:16:39.900Z,942.12
2023-09-02T12:17:40.329Z,942.06
2023-09-02T12:18:40.763Z,942.07
2023-09-02T12:19:41.292Z,942.09
2023-09-02T12:20:41.412Z,942.1
2023-09-02T12:21:41.986Z,942.04
2023-09-02T12:22:42.172Z,942.07
2023-09-02T12:23:42.359Z,942.11
2023-09-02T12:24:43.105Z,942.11
2023-09-02T12:25:43.838Z,942.09
2023-09-02T12:26:44.351Z,942.13
2023-09-02T12:27:44.616Z,942.17
2023-09-02T12:28:45.725Z,942.14
2023-09-02T12:29:45.930Z,942.14
2023-09-02T12:30:46.761Z,942.17
2023-09-02T12:31:47.424Z,942.14
2023-09-02T12:32:47.974Z,942.16
2023-09-02T12:33:48.854Z,942.14
2023-09-02T12:34:49.194Z,942.16
2023-09-02T12:35:49.536Z,942.12
2023-09-02T12:36:50.287Z,942.12
2023-09-02T12:37:50.951Z,942.12
2023-09-02T12:38:51.715Z,942.15
2023-09-02T12:39:52.054Z,942.13
2023-09-02T12:40:52.981Z,942.15
2023-09-02T12:41:53.884Z,942.09
2023-09-02T12:42:54.608Z,942.11
2023-09-02T12:43:55.181Z,942.06
2023-09-02T12:44:55.915Z,942.07
2023-09-02T12:45:56.264Z,942.07
2023-09-02T12:46:56.505Z,942.05
2023-09-02T12:47:57.001Z,942.04
2023-09-02T12:48:58.080Z,942.07
2023-09-02T12:49:59.028Z,942.04
2023-09-02T12:50:59.864Z,942.04
2023-09-02T12:52:00.181Z,942.06
2023-09-02T12:53:01.163Z,942.02
2023-09-02T12:54:01.902Z,942.01
2023-09-02T12:55:02.411Z,941.99
2023-09-02T12:56:03.233Z,941.99
2023-09-02T12:57:04.296Z,942.02
2023-09-02T12:58:04.934Z,942.03
2023-09-02T12:59:05.704Z,942.06
2023-09-02T13:00:06.440Z,942.04
2023-09-02T13:01:06.815Z,942.07
2023-09-02T13:02:07.917Z,942.03
2023-09-02T13:03:07.845Z,942.05
2023-09-02T13:04:08.729Z,942.06
2023-09-02T13:05:09.343Z,942.05
2023-09-02T13:06:10.306Z,942.04
2023-09-02T13:07:10.959Z,942.09
2023-09-02T13:08:13.106Z,942.09
2023-09-02T13:09:11.981Z,942.06
2023-09-02T13:10:12.692Z,942.06
2023-09-02T13:11:13.040Z,942.06
2023-09-02T13:12:13.202Z,942.13
2023-09-02T13:13:14.211Z,942.08
2023-09-02T13:14:15.133Z,942.1
2023-09-02T13:15:15.698Z,942.09
2023-09-02T13:16:15.999Z,942.07
2023-09-02T13:17:16.531Z,942.03
2023-09-02T13:18:16.811Z,942.08
2023-09-02T13:19:17.220Z,942.07
2023-09-02T13:20:18.005Z,942.06
2023-09-02T13:21:18.191Z,942.05
2023-09-02T13:22:18.735Z,942.04
2023-09-02T13:23:19.853Z,942.04
2023-09-02T13:24:19.985Z,942.02